Time;durP1;ratioP1;P1;durP2;ratioP2;P2;SDS_P1;SDS_P2;PMS_P1;PMS_P2;Temp;Humidity;BMP_temperature;BMP_pressure;BME280_temperature;BME280_humidity;BME280_pressure;Samples;Min_cycle;Max_cycle;Signal;HPM_P1;HPM_P2
2021/11/27 00:00:56;;;;;;;2.47;0.93;;;;;11.70;98173.00;;;;5096289;28;20289;-80
2021/11/27 00:03:23;;;;;;;2.75;0.90;;;;;11.70;98174.00;;;;5095228;28;20199;-81
2021/11/27 00:05:51;;;;;;;2.63;0.70;;;;;11.60;98167.00;;;;5092822;28;20191;-82
2021/11/27 00:08:21;;;;;;;3.65;0.88;;;;;11.60;98171.00;;;;5092728;28;20194;-82
2021/11/27 00:10:51;;;;;;;1.38;0.45;;;;;11.60;98174.00;;;;5095455;28;20193;-82
2021/11/27 00:13:19;;;;;;;0.85;0.40;;;;;11.50;98176.00;;;;5097163;28;20218;-81
2021/11/27 00:15:47;;;;;;;0.60;0.38;;;;;11.50;98182.00;;;;5096651;28;20226;-82
2021/11/27 00:18:16;;;;;;;2.47;0.60;;;;;11.50;98183.00;;;;5100984;28;20599;-82
2021/11/27 00:20:47;;;;;;;0.75;0.25;;;;;11.40;98188.00;;;;5099863;28;20225;-82
2021/11/27 00:23:15;;;;;;;1.40;0.20;;;;;11.40;98183.00;;;;5098545;28;20201;-82
2021/11/27 00:25:43;;;;;;;1.30;0.40;;;;;11.30;98188.00;;;;5093159;28;20207;-81
2021/11/27 00:28:11;;;;;;;1.42;0.20;;;;;11.30;98180.00;;;;5105796;28;20212;-81
2021/11/27 00:30:40;;;;;;;1.33;0.30;;;;;11.20;98187.00;;;;5095997;28;20217;-82
2021/11/27 00:33:08;;;;;;;0.50;0.20;;;;;11.20;98178.00;;;;5100958;28;20598;-82
2021/11/27 00:35:35;;;;;;;0.30;0.10;;;;;11.20;98176.00;;;;5103496;28;20201;-82
2021/11/27 00:38:06;;;;;;;2.67;0.30;;;;;11.20;98179.00;;;;5092681;28;20206;-82
2021/11/27 00:40:35;;;;;;;1.45;0.30;;;;;11.10;98177.00;;;;5092327;28;20566;-82
2021/11/27 00:43:05;;;;;;;0.85;0.20;;;;;11.10;98170.00;;;;5108369;28;20193;-82
2021/11/27 00:45:32;;;;;;;0.55;0.20;;;;;11.10;98174.00;;;;5107540;28;20225;-82
2021/11/27 00:48:00;;;;;;;1.13;0.20;;;;;11.00;98174.00;;;;5099488;28;20201;-82
2021/11/27 00:50:31;;;;;;;0.52;0.20;;;;;11.00;98174.00;;;;5095054;28;20954;-82
2021/11/27 00:52:59;;;;;;;0.80;0.10;;;;;11.00;98180.00;;;;5096878;28;20261;-83
2021/11/27 00:55:28;;;;;;;0.50;0.22;;;;;11.00;98178.00;;;;5091789;28;20255;-82
2021/11/27 00:57:56;;;;;;;0.57;0.22;;;;;11.00;98177.00;;;;5091807;28;20205;-82
2021/11/27 01:00:31;;;;;;;0.30;0.10;;;;;10.90;98174.00;;;;5091920;28;20195;-81
2021/11/27 01:02:59;;;;;;;0.68;0.20;;;;;11.00;98177.00;;;;5091652;28;20659;-81
2021/11/27 01:05:28;;;;;;;1.02;0.10;;;;;10.90;98182.00;;;;5092610;28;20191;-81
2021/11/27 01:07:55;;;;;;;0.35;0.10;;;;;10.90;98179.00;;;;5106305;28;20203;-81
2021/11/27 01:10:25;;;;;;;1.00;0.20;;;;;10.90;98177.00;;;;5091401;28;20195;-81
2021/11/27 01:12:54;;;;;;;0.77;0.20;;;;;11.00;98187.00;;;;5091517;28;20222;-81
2021/11/27 01:15:27;;;;;;;0.63;0.10;;;;;10.90;98173.00;;;;5091259;28;20194;-81
2021/11/27 01:17:57;;;;;;;0.20;0.20;;;;;10.90;98179.00;;;;5098753;28;20198;-81
2021/11/27 01:20:28;;;;;;;0.77;0.15;;;;;10.90;98175.00;;;;5104672;28;20215;-81
2021/11/27 01:22:56;;;;;;;1.52;0.40;;;;;10.90;98181.00;;;;5095488;28;20209;-81
2021/11/27 01:25:25;;;;;;;1.02;0.10;;;;;10.90;98171.00;;;;5091291;28;20603;-81
2021/11/27 01:27:52;;;;;;;0.80;0.20;;;;;10.90;98171.00;;;;5091094;28;20202;-82
2021/11/27 01:30:21;;;;;;;0.77;0.17;;;;;10.90;98166.00;;;;5093037;28;20851;-82
2021/11/27 01:32:50;;;;;;;0.35;0.10;;;;;10.90;98171.00;;;;5091204;28;20224;-81
2021/11/27 01:35:18;;;;;;;1.38;0.40;;;;;10.90;98175.00;;;;5091532;28;20214;-82
2021/11/27 01:37:45;;;;;;;0.22;0.10;;;;;11.00;98171.00;;;;5092326;28;20197;-82
2021/11/27 01:40:15;;;;;;;1.75;0.30;;;;;10.90;98174.00;;;;5090492;28;20193;-81
2021/11/27 01:42:43;;;;;;;0.77;0.20;;;;;11.00;98181.00;;;;5097698;28;20208;-82
2021/11/27 01:45:13;;;;;;;0.95;0.30;;;;;11.00;98178.00;;;;5098163;28;20195;-81
2021/11/27 01:47:45;;;;;;;1.65;0.40;;;;;11.00;98184.00;;;;5090324;28;20201;-81
2021/11/27 01:50:14;;;;;;;0.57;0.10;;;;;11.00;98184.00;;;;5108005;28;20213;-81
2021/11/27 01:52:41;;;;;;;1.23;0.28;;;;;11.00;98190.00;;;;5091589;28;20794;-81
2021/11/27 01:55:09;;;;;;;1.17;0.10;;;;;11.00;98183.00;;;;5094429;28;20186;-81
2021/11/27 01:57:36;;;;;;;1.08;0.10;;;;;11.00;98191.00;;;;5102312;28;20205;-82
2021/11/27 02:00:07;;;;;;;0.63;0.13;;;;;11.00;98188.00;;;;5108827;28;20651;-81
2021/11/27 02:02:35;;;;;;;0.98;0.20;;;;;11.00;98186.00;;;;5089729;28;20198;-81
2021/11/27 02:05:03;;;;;;;0.22;0.10;;;;;11.00;98194.00;;;;5090504;28;20190;-81
2021/11/27 02:07:32;;;;;;;0.32;0.10;;;;;11.00;98195.00;;;;5090526;28;20197;-81
2021/11/27 02:09:59;;;;;;;5.45;0.40;;;;;11.00;98192.00;;;;5104177;28;20601;-81
2021/11/27 02:12:27;;;;;;;0.55;0.25;;;;;11.00;98196.00;;;;5089401;28;20281;-82
2021/11/27 02:14:54;;;;;;;1.02;0.10;;;;;11.00;98194.00;;;;5090002;28;20983;-82
2021/11/27 02:17:21;;;;;;;1.23;0.20;;;;;11.00;98189.00;;;;5089817;28;20705;-82
2021/11/27 02:19:49;;;;;;;1.23;0.20;;;;;11.00;98192.00;;;;5090632;28;20209;-81
2021/11/27 02:22:18;;;;;;;1.42;0.20;;;;;10.90;98198.00;;;;5096033;28;20205;-82
2021/11/27 02:24:46;;;;;;;0.35;0.13;;;;;10.90;98191.00;;;;5097989;28;20698;-81
2021/11/27 02:27:13;;;;;;;0.30;0.05;;;;;10.90;98203.00;;;;5097507;28;20206;-81
2021/11/27 02:29:41;;;;;;;0.47;0.10;;;;;10.90;98195.00;;;;5090256;28;20202;-82
2021/11/27 02:32:09;;;;;;;1.65;0.20;;;;;10.90;98193.00;;;;5097344;28;20214;-82
2021/11/27 02:34:37;;;;;;;1.13;0.20;;;;;10.90;98191.00;;;;5090426;28;20226;-82
2021/11/27 02:37:07;;;;;;;1.08;0.10;;;;;10.90;98192.00;;;;5093710;28;20186;-82
2021/11/27 02:39:36;;;;;;;0.93;0.30;;;;;10.90;98194.00;;;;5095876;28;20209;-82
2021/11/27 02:42:06;;;;;;;0.30;0.10;;;;;10.90;98192.00;;;;5090033;28;20202;-81
2021/11/27 02:44:35;;;;;;;0.55;0.10;;;;;10.90;98190.00;;;;5099359;28;20201;-82
2021/11/27 02:47:04;;;;;;;0.25;0.10;;;;;10.80;98192.00;;;;5106586;28;20213;-82
2021/11/27 02:49:31;;;;;;;0.40;0.10;;;;;10.80;98199.00;;;;5090189;28;20382;-81
2021/11/27 02:51:59;;;;;;;0.32;0.10;;;;;10.80;98197.00;;;;5093720;28;20863;-82
2021/11/27 02:54:26;;;;;;;0.73;0.17;;;;;10.80;98200.00;;;;5089802;28;20229;-81
2021/11/27 02:56:56;;;;;;;1.33;0.30;;;;;10.70;98197.00;;;;5089292;28;20229;-82
2021/11/27 02:59:28;;;;;;;1.67;0.20;;;;;10.70;98202.00;;;;5102058;28;20256;-81
2021/11/27 03:01:57;;;;;;;0.47;0.10;;;;;10.70;98206.00;;;;5106035;28;20275;-82
2021/11/27 03:04:26;;;;;;;1.77;0.13;;;;;10.70;98212.00;;;;5094958;28;20664;-81
2021/11/27 03:06:53;;;;;;;0.45;0.30;;;;;10.70;98202.00;;;;5100464;28;20212;-81
2021/11/27 03:09:22;;;;;;;0.47;0.03;;;;;10.70;98214.00;;;;5093023;28;20206;-81
2021/11/27 03:11:53;;;;;;;0.60;0.10;;;;;10.70;98213.00;;;;5089059;28;20198;-81
2021/11/27 03:14:24;;;;;;;0.80;0.32;;;;;10.70;98220.00;;;;5089144;28;20234;-81
2021/11/27 03:16:52;;;;;;;0.47;0.30;;;;;10.70;98217.00;;;;5088894;28;20209;-81
2021/11/27 03:19:19;;;;;;;0.65;0.25;;;;;10.70;98223.00;;;;5088873;28;20182;-81
2021/11/27 03:21:47;;;;;;;1.33;0.00;;;;;10.70;98227.00;;;;5105358;28;20197;-81
2021/11/27 03:24:15;;;;;;;1.65;0.20;;;;;10.70;98227.00;;;;5107982;28;20205;-81
2021/11/27 03:26:43;;;;;;;1.55;0.43;;;;;10.80;98232.00;;;;5093873;28;20198;-81
2021/11/27 03:29:11;;;;;;;0.28;0.10;;;;;10.80;98231.00;;;;5090034;28;20701;-81
2021/11/27 03:31:39;;;;;;;0.52;0.10;;;;;10.80;98231.00;;;;5089184;28;20225;-82
2021/11/27 03:34:07;;;;;;;0.20;0.10;;;;;10.80;98239.00;;;;5089972;28;20226;-81
2021/11/27 03:36:34;;;;;;;0.43;0.00;;;;;10.80;98240.00;;;;5089249;28;20194;-81
2021/11/27 03:39:02;;;;;;;0.30;0.08;;;;;10.80;98238.00;;;;5088989;28;20211;-81
2021/11/27 03:41:29;;;;;;;0.35;0.10;;;;;10.80;98238.00;;;;5088922;28;20201;-81
2021/11/27 03:43:57;;;;;;;0.30;0.00;;;;;10.80;98241.00;;;;5089332;28;20205;-81
2021/11/27 03:46:24;;;;;;;0.00;0.00;;;;;10.80;98255.00;;;;5088972;28;21004;-81
2021/11/27 03:48:54;;;;;;;1.48;0.10;;;;;10.80;98249.00;;;;5088333;28;20205;-81
2021/11/27 03:51:24;;;;;;;0.75;0.05;;;;;10.80;98254.00;;;;5089349;28;20238;-81
2021/11/27 03:53:51;;;;;;;0.40;0.10;;;;;10.80;98260.00;;;;5088779;28;20225;-81
2021/11/27 03:56:25;;;;;;;1.15;0.10;;;;;10.80;98267.00;;;;5088815;28;20190;-81
2021/11/27 03:58:52;;;;;;;1.95;0.40;;;;;10.80;98264.00;;;;5092961;28;21049;-81
2021/11/27 04:01:21;;;;;;;1.27;0.10;;;;;10.80;98275.00;;;;5099405;28;20616;-81
2021/11/27 04:03:52;;;;;;;0.55;0.10;;;;;10.80;98281.00;;;;5091203;28;20668;-81
2021/11/27 04:06:20;;;;;;;0.95;0.30;;;;;10.80;98281.00;;;;5095888;28;20196;-81
2021/11/27 04:08:48;;;;;;;1.42;0.10;;;;;10.80;98283.00;;;;5105780;28;20206;-81
2021/11/27 04:11:15;;;;;;;0.40;0.10;;;;;10.80;98284.00;;;;5094385;28;20671;-81
2021/11/27 04:13:43;;;;;;;0.75;0.38;;;;;10.80;98286.00;;;;5100980;28;20225;-81
2021/11/27 04:16:10;;;;;;;0.70;0.38;;;;;10.80;98289.00;;;;5092646;28;20190;-81
2021/11/27 04:18:37;;;;;;;0.40;0.00;;;;;10.70;98292.00;;;;5092163;28;20210;-81
2021/11/27 04:21:06;;;;;;;0.80;0.25;;;;;10.70;98290.00;;;;5094613;28;20205;-80
2021/11/27 04:23:33;;;;;;;0.60;0.15;;;;;10.70;98294.00;;;;5092322;28;20194;-81
2021/11/27 04:26:01;;;;;;;0.10;0.10;;;;;10.70;98304.00;;;;5092968;28;20190;-81
2021/11/27 04:28:28;;;;;;;0.60;0.10;;;;;10.60;98300.00;;;;5091534;28;20747;-81
2021/11/27 04:30:55;;;;;;;0.40;0.00;;;;;10.60;98302.00;;;;5091345;28;20210;-81
2021/11/27 04:33:23;;;;;;;1.15;0.10;;;;;10.50;98299.00;;;;5091574;28;20202;-80
2021/11/27 04:35:50;;;;;;;0.55;0.00;;;;;10.50;98305.00;;;;5093650;28;20203;-81
2021/11/27 04:38:19;;;;;;;0.43;0.00;;;;;10.50;98311.00;;;;5091762;28;20201;-81
2021/11/27 04:40:47;;;;;;;1.25;0.15;;;;;10.50;98324.00;;;;5091820;28;20190;-81
2021/11/27 04:43:15;;;;;;;0.00;0.00;;;;;10.50;98329.00;;;;5092328;28;20201;-81
2021/11/27 04:45:42;;;;;;;0.38;0.10;;;;;10.50;98329.00;;;;5091741;28;20209;-81
2021/11/27 04:48:10;;;;;;;0.68;0.15;;;;;10.50;98328.00;;;;5092086;28;20198;-81
2021/11/27 04:50:38;;;;;;;0.40;0.00;;;;;10.50;98335.00;;;;5092032;28;20205;-81
2021/11/27 04:53:07;;;;;;;0.40;0.10;;;;;10.50;98337.00;;;;5092240;28;20214;-80
2021/11/27 04:55:35;;;;;;;0.63;0.20;;;;;10.50;98348.00;;;;5091903;28;20240;-81
2021/11/27 04:58:04;;;;;;;0.25;0.03;;;;;10.50;98344.00;;;;5098224;28;20197;-81
2021/11/27 05:00:34;;;;;;;0.20;0.00;;;;;10.40;98344.00;;;;5092411;28;20202;-81
2021/11/27 05:03:01;;;;;;;0.20;0.05;;;;;10.50;98359.00;;;;5091889;28;20205;-81
2021/11/27 05:05:29;;;;;;;0.00;0.00;;;;;10.40;98359.00;;;;5099810;28;20190;-81
2021/11/27 05:07:58;;;;;;;0.60;0.10;;;;;10.50;98362.00;;;;5103964;28;20197;-81
2021/11/27 05:10:25;;;;;;;0.75;0.20;;;;;10.50;98365.00;;;;5091168;28;20197;-81
2021/11/27 05:12:54;;;;;;;1.25;0.08;;;;;10.50;98371.00;;;;5101907;28;20209;-81
2021/11/27 05:15:22;;;;;;;0.10;0.10;;;;;10.50;98371.00;;;;5107264;28;20222;-81
2021/11/27 05:17:49;;;;;;;0.20;0.10;;;;;10.50;98376.00;;;;5100421;28;20581;-81
2021/11/27 05:20:17;;;;;;;0.50;0.10;;;;;10.60;98387.00;;;;5096500;28;20194;-81
2021/11/27 05:22:44;;;;;;;0.57;0.10;;;;;10.60;98384.00;;;;5090535;28;20202;-81
2021/11/27 05:25:12;;;;;;;0.30;0.10;;;;;10.60;98390.00;;;;5089965;28;20206;-81
2021/11/27 05:27:40;;;;;;;0.00;0.00;;;;;10.60;98393.00;;;;5090778;28;20190;-81
2021/11/27 05:30:11;;;;;;;2.33;0.20;;;;;10.60;98398.00;;;;5090778;28;20540;-81
2021/11/27 05:32:51;;;;;;;1.33;0.00;;;;;10.60;98407.00;;;;5090206;28;20688;-81
2021/11/27 05:35:18;;;;;;;0.55;0.10;;;;;10.60;98408.00;;;;5099011;28;20214;-81
2021/11/27 05:37:46;;;;;;;0.40;0.05;;;;;10.60;98404.00;;;;5089959;28;20233;-81
2021/11/27 05:40:14;;;;;;;1.23;0.20;;;;;10.60;98412.00;;;;5101537;28;20660;-81
2021/11/27 05:42:43;;;;;;;0.30;0.10;;;;;10.60;98417.00;;;;5098304;28;20205;-81
2021/11/27 05:45:14;;;;;;;1.20;0.15;;;;;10.50;98424.00;;;;5090311;28;20222;-81
2021/11/27 05:47:41;;;;;;;0.30;0.20;;;;;10.50;98421.00;;;;5093790;28;20195;-81
2021/11/27 05:50:10;;;;;;;0.13;0.10;;;;;10.50;98431.00;;;;5090947;28;20206;-81
2021/11/27 05:52:38;;;;;;;0.10;0.00;;;;;10.50;98426.00;;;;5091341;28;20731;-82
2021/11/27 05:55:07;;;;;;;0.10;0.00;;;;;10.50;98431.00;;;;5090964;28;20766;-81
2021/11/27 05:57:34;;;;;;;0.30;0.10;;;;;10.50;98435.00;;;;5093589;28;20197;-81
2021/11/27 06:00:03;;;;;;;0.40;0.10;;;;;10.50;98434.00;;;;5096124;28;20193;-81
2021/11/27 06:02:32;;;;;;;0.45;0.08;;;;;10.40;98438.00;;;;5092648;28;21142;-81
2021/11/27 06:04:59;;;;;;;1.25;0.20;;;;;10.40;98447.00;;;;5096537;28;20260;-81
2021/11/27 06:07:26;;;;;;;0.22;0.10;;;;;10.40;98442.00;;;;5098998;28;20198;-81
2021/11/27 06:09:54;;;;;;;0.43;0.22;;;;;10.40;98444.00;;;;5102587;28;20210;-81
2021/11/27 06:12:22;;;;;;;0.38;0.30;;;;;10.30;98457.00;;;;5093255;28;20202;-82
2021/11/27 06:14:49;;;;;;;0.45;0.20;;;;;10.30;98453.00;;;;5098590;28;20221;-81
2021/11/27 06:17:16;;;;;;;0.63;0.20;;;;;10.30;98455.00;;;;5093720;28;20222;-82
2021/11/27 06:19:45;;;;;;;0.75;0.20;;;;;10.30;98454.00;;;;5100038;28;20199;-81
2021/11/27 06:22:12;;;;;;;1.30;0.55;;;;;10.30;98467.00;;;;5102635;28;20222;-80
2021/11/27 06:24:40;;;;;;;1.63;0.20;;;;;10.20;98463.00;;;;5097965;28;20707;-81
2021/11/27 06:27:07;;;;;;;0.55;0.30;;;;;10.20;98465.00;;;;5104046;28;20197;-81
2021/11/27 06:29:34;;;;;;;0.98;0.28;;;;;10.20;98468.00;;;;5109501;28;20198;-81
2021/11/27 06:32:08;;;;;;;0.77;0.20;;;;;10.20;98467.00;;;;5095557;28;20222;-81
2021/11/27 06:34:35;;;;;;;0.55;0.30;;;;;10.20;98476.00;;;;5096024;28;20225;-81
2021/11/27 06:37:04;;;;;;;0.40;0.22;;;;;10.20;98481.00;;;;5090358;28;20205;-81
2021/11/27 06:39:32;;;;;;;0.90;0.25;;;;;10.20;98474.00;;;;5089853;28;20194;-82
2021/11/27 06:41:59;;;;;;;0.88;0.20;;;;;10.20;98472.00;;;;5089003;28;20206;-82
2021/11/27 06:44:28;;;;;;;0.40;0.17;;;;;10.10;98475.00;;;;5098002;28;20217;-82
2021/11/27 06:46:55;;;;;;;0.50;0.20;;;;;10.10;98477.00;;;;5092833;28;20204;-81
2021/11/27 06:49:22;;;;;;;0.65;0.20;;;;;10.10;98478.00;;;;5092822;28;20248;-81
2021/11/27 06:51:49;;;;;;;0.93;0.20;;;;;10.10;98478.00;;;;5095113;28;20222;-82
2021/11/27 06:54:18;;;;;;;0.38;0.20;;;;;10.10;98477.00;;;;5096576;28;20200;-82
2021/11/27 06:56:45;;;;;;;1.85;0.30;;;;;10.10;98483.00;;;;5096273;28;20201;-82
2021/11/27 06:59:13;;;;;;;0.20;0.20;;;;;10.10;98487.00;;;;5100136;28;20201;-82
2021/11/27 07:01:40;;;;;;;1.50;0.40;;;;;10.10;98489.00;;;;5099136;28;20200;-81
2021/11/27 07:04:07;;;;;;;0.93;0.20;;;;;10.10;98491.00;;;;5092018;28;20206;-81
2021/11/27 07:06:35;;;;;;;0.63;0.20;;;;;10.10;98507.00;;;;5096898;28;20670;-81
2021/11/27 07:09:02;;;;;;;0.70;0.20;;;;;10.00;98501.00;;;;5093324;28;20194;-80
2021/11/27 07:11:31;;;;;;;0.70;0.45;;;;;10.00;98511.00;;;;5097797;28;20201;-82
2021/11/27 07:13:58;;;;;;;0.40;0.30;;;;;10.00;98519.00;;;;5092383;28;20194;-81
2021/11/27 07:16:28;;;;;;;0.47;0.30;;;;;10.00;98515.00;;;;5094178;28;20226;-81
2021/11/27 07:18:56;;;;;;;0.50;0.38;;;;;10.00;98530.00;;;;5094776;28;20208;-81
2021/11/27 07:21:23;;;;;;;0.40;0.30;;;;;10.00;98534.00;;;;5094227;28;20657;-81
2021/11/27 07:23:51;;;;;;;0.30;0.20;;;;;10.00;98541.00;;;;5095160;28;20828;-81
2021/11/27 07:26:19;;;;;;;0.98;0.50;;;;;10.00;98537.00;;;;5093349;28;20220;-81
2021/11/27 07:28:49;;;;;;;0.80;0.32;;;;;10.00;98543.00;;;;5095211;28;20214;-81
2021/11/27 07:31:16;;;;;;;0.30;0.30;;;;;10.00;98542.00;;;;5093848;28;20222;-81
2021/11/27 07:33:44;;;;;;;0.75;0.25;;;;;10.00;98553.00;;;;5092907;28;20209;-83
2021/11/27 07:36:12;;;;;;;0.60;0.30;;;;;10.00;98549.00;;;;5094666;28;20715;-82
2021/11/27 07:38:40;;;;;;;0.32;0.25;;;;;10.00;98556.00;;;;5093971;28;20704;-81
2021/11/27 07:41:07;;;;;;;0.30;0.20;;;;;10.00;98559.00;;;;5105477;28;20202;-84
2021/11/27 07:43:37;;;;;;;0.38;0.28;;;;;10.00;98567.00;;;;5101775;28;20194;-83
2021/11/27 07:46:06;;;;;;;0.30;0.30;;;;;10.00;98575.00;;;;5094936;28;20224;-81
2021/11/27 07:48:34;;;;;;;1.20;0.38;;;;;10.00;98588.00;;;;5095550;28;20575;-84
2021/11/27 07:51:03;;;;;;;2.30;1.30;;;;;10.00;98592.00;;;;5090288;28;20532;-82
2021/11/27 07:53:31;;;;;;;0.85;0.50;;;;;10.20;98601.00;;;;5104812;28;20202;-82
2021/11/27 07:55:58;;;;;;;1.50;0.38;;;;;10.20;98598.00;;;;5095414;28;20220;-80
2021/11/27 07:58:25;;;;;;;0.40;0.22;;;;;10.20;98599.00;;;;5107347;28;20202;-82
2021/11/27 08:00:52;;;;;;;0.47;0.38;;;;;10.20;98604.00;;;;5107947;28;20194;-81
2021/11/27 08:03:21;;;;;;;0.60;0.45;;;;;10.20;98606.00;;;;5092932;28;20187;-81
2021/11/27 08:05:48;;;;;;;0.93;0.30;;;;;10.20;98610.00;;;;5093628;28;20209;-83
2021/11/27 08:08:16;;;;;;;0.50;0.43;;;;;10.20;98611.00;;;;5088953;28;20209;-83
2021/11/27 08:10:43;;;;;;;0.65;0.40;;;;;10.20;98614.00;;;;5088508;28;20200;-83
2021/11/27 08:13:10;;;;;;;1.48;0.50;;;;;10.20;98614.00;;;;5088761;28;20206;-83
2021/11/27 08:15:38;;;;;;;0.57;0.40;;;;;10.20;98619.00;;;;5091928;28;20236;-83
2021/11/27 08:18:05;;;;;;;0.50;0.30;;;;;10.20;98618.00;;;;5107758;28;20197;-82
2021/11/27 08:20:34;;;;;;;0.88;0.32;;;;;10.20;98627.00;;;;5108678;28;20205;-82
2021/11/27 08:23:05;;;;;;;1.60;0.38;;;;;10.20;98621.00;;;;5102447;28;20194;-81
2021/11/27 08:25:32;;;;;;;0.38;0.22;;;;;10.20;98625.00;;;;5091605;28;20197;-81
2021/11/27 08:27:59;;;;;;;1.13;0.45;;;;;10.20;98621.00;;;;5088006;28;20201;-80
2021/11/27 08:30:27;;;;;;;1.75;0.35;;;;;10.20;98627.00;;;;5089408;28;20204;-79
2021/11/27 08:32:54;;;;;;;0.65;0.45;;;;;10.20;98636.00;;;;5090382;28;21184;-81
2021/11/27 08:35:22;;;;;;;0.75;0.63;;;;;10.30;98636.00;;;;5093944;28;20229;-81
2021/11/27 08:37:50;;;;;;;1.80;0.63;;;;;10.30;98637.00;;;;5094839;28;20202;-82
2021/11/27 08:40:18;;;;;;;0.40;0.30;;;;;10.30;98628.00;;;;5093355;28;20206;-83
2021/11/27 08:42:45;;;;;;;0.30;0.17;;;;;10.30;98632.00;;;;5097223;28;20202;-83
2021/11/27 08:45:13;;;;;;;0.35;0.30;;;;;10.30;98643.00;;;;5090065;28;20715;-80
2021/11/27 08:47:41;;;;;;;0.65;0.28;;;;;10.30;98647.00;;;;5088830;28;20207;-82
2021/11/27 08:50:11;;;;;;;0.63;0.45;;;;;10.30;98654.00;;;;5098983;28;20190;-82
2021/11/27 08:52:39;;;;;;;1.00;0.40;;;;;10.30;98655.00;;;;5094582;28;20226;-82
2021/11/27 08:55:08;;;;;;;0.50;0.40;;;;;10.20;98668.00;;;;5090400;28;20214;-81
2021/11/27 08:57:36;;;;;;;0.68;0.30;;;;;10.20;98663.00;;;;5094136;28;20203;-80
2021/11/27 09:00:04;;;;;;;0.75;0.30;;;;;10.20;98661.00;;;;5104463;28;20206;-81
2021/11/27 09:02:32;;;;;;;1.48;0.43;;;;;10.20;98675.00;;;;5101736;28;20202;-81
2021/11/27 09:04:59;;;;;;;1.30;0.47;;;;;10.20;98674.00;;;;5091105;28;20209;-81
2021/11/27 09:07:26;;;;;;;4.50;0.50;;;;;10.20;98674.00;;;;5091892;28;20202;-81
2021/11/27 09:09:54;;;;;;;0.90;0.47;;;;;10.20;98666.00;;;;5091256;28;20209;-82
2021/11/27 09:12:23;;;;;;;1.95;0.47;;;;;10.20;98669.00;;;;5090083;28;20195;-81
2021/11/27 09:14:51;;;;;;;1.88;0.70;;;;;10.20;98670.00;;;;5104089;28;20201;-79
2021/11/27 09:17:19;;;;;;;1.60;0.40;;;;;10.20;98672.00;;;;5102973;28;20208;-78
2021/11/27 09:19:46;;;;;;;1.88;0.68;;;;;10.20;98673.00;;;;5096701;28;20205;-77
2021/11/27 09:22:14;;;;;;;1.17;0.80;;;;;10.20;98677.00;;;;5101294;28;20194;-78
2021/11/27 09:24:41;;;;;;;1.13;0.80;;;;;10.20;98688.00;;;;5093867;28;20201;-79
2021/11/27 09:27:08;;;;;;;0.73;0.60;;;;;10.30;98697.00;;;;5104500;28;20197;-78
2021/11/27 09:29:39;;;;;;;0.70;0.47;;;;;10.30;98695.00;;;;5099421;28;20186;-79
2021/11/27 09:32:07;;;;;;;0.90;0.60;;;;;10.30;98704.00;;;;5093578;28;20309;-78
2021/11/27 09:34:34;;;;;;;0.88;0.60;;;;;10.30;98705.00;;;;5094116;28;20190;-78
2021/11/27 09:37:02;;;;;;;0.80;0.52;;;;;10.30;98711.00;;;;5090813;28;20222;-78
2021/11/27 09:39:30;;;;;;;1.98;0.80;;;;;10.40;98709.00;;;;5089595;28;20197;-79
2021/11/27 09:41:59;;;;;;;1.00;0.80;;;;;10.40;98724.00;;;;5094476;28;20285;-78
2021/11/27 09:44:31;;;;;;;1.38;0.95;;;;;10.40;98721.00;;;;5092960;27;20201;-77
2021/11/27 09:47:03;;;;;;;1.30;0.90;;;;;10.40;98727.00;;;;5098237;27;20202;-78
2021/11/27 09:49:31;;;;;;;1.25;0.60;;;;;10.40;98724.00;;;;5098848;28;20206;-78
2021/11/27 09:51:58;;;;;;;2.00;1.13;;;;;10.40;98723.00;;;;5096995;28;20283;-78
2021/11/27 09:54:26;;;;;;;1.05;0.70;;;;;10.40;98733.00;;;;5100269;28;20258;-78
2021/11/27 09:56:55;;;;;;;1.35;0.75;;;;;10.40;98729.00;;;;5092843;28;20226;-78
2021/11/27 09:59:23;;;;;;;1.95;0.65;;;;;10.40;98728.00;;;;5088937;28;20198;-78
2021/11/27 10:01:53;;;;;;;1.17;0.60;;;;;10.40;98732.00;;;;5096063;28;20202;-78
2021/11/27 10:04:23;;;;;;;0.88;0.57;;;;;10.40;98727.00;;;;5092742;28;20239;-78
2021/11/27 10:06:51;;;;;;;0.70;0.50;;;;;10.40;98723.00;;;;5096876;28;20206;-78
2021/11/27 10:09:20;;;;;;;1.00;0.70;;;;;10.40;98729.00;;;;5094091;28;20194;-78
2021/11/27 10:11:49;;;;;;;1.25;0.90;;;;;10.40;98733.00;;;;5095847;28;20678;-78
2021/11/27 10:14:18;;;;;;;1.20;0.70;;;;;10.40;98734.00;;;;5096466;28;20202;-78
2021/11/27 10:17:13;;;;;;;1.60;0.95;;;;;10.30;98736.00;;;;5090646;28;20245;-78
2021/11/27 10:19:57;;;;;;;1.77;0.90;;;;;10.40;98724.00;;;;5088744;28;20194;-78
2021/11/27 10:22:48;;;;;;;3.33;0.95;;;;;10.30;98733.00;;;;5090118;28;20821;-78
2021/11/27 10:25:32;;;;;;;2.10;1.00;;;;;10.40;98732.00;;;;5089521;28;20205;-78
2021/11/27 10:28:06;;;;;;;2.38;1.40;;;;;10.40;98732.00;;;;5096580;28;20283;-78
2021/11/27 10:30:43;;;;;;;2.70;1.08;;;;;10.40;98730.00;;;;5101023;28;20679;-77
2021/11/27 10:33:11;;;;;;;2.13;1.40;;;;;10.50;98735.00;;;;5100062;28;20204;-78
2021/11/27 10:35:51;;;;;;;2.03;1.08;;;;;10.40;98738.00;;;;5100735;28;20217;-78
2021/11/27 10:38:19;;;;;;;2.85;1.58;;;;;10.50;98731.00;;;;5089533;28;20194;-77
2021/11/27 10:40:56;;;;;;;1.92;1.40;;;;;10.50;98723.00;;;;5099952;28;20210;-77
2021/11/27 10:43:24;;;;;;;2.95;1.45;;;;;10.60;98734.00;;;;5099933;28;20194;-78
2021/11/27 10:45:51;;;;;;;2.20;1.40;;;;;10.70;98717.00;;;;5095861;28;20271;-77
2021/11/27 10:48:20;;;;;;;3.38;1.80;;;;;10.70;98717.00;;;;5097871;28;20182;-78
2021/11/27 10:50:52;;;;;;;3.63;2.13;;;;;10.70;98721.00;;;;5089287;28;20201;-80
2021/11/27 10:53:21;;;;;;;4.82;2.83;;;;;10.80;98721.00;;;;5092360;28;21013;-79
2021/11/27 10:55:49;;;;;;;8.90;4.57;;;;;10.80;98727.00;;;;5106086;28;20221;-80
2021/11/27 10:58:17;;;;;;;11.30;5.57;;;;;10.90;98727.00;;;;5095572;28;20198;-79
2021/11/27 11:00:47;;;;;;;13.52;6.38;;;;;10.90;98725.00;;;;5088656;28;20214;-80
2021/11/27 11:03:30;;;;;;;11.85;6.38;;;;;10.80;98732.00;;;;5088613;28;20248;-79
2021/11/27 11:06:01;;;;;;;11.73;6.97;;;;;10.90;98736.00;;;;5088598;28;20624;-80
2021/11/27 11:08:34;;;;;;;9.10;6.07;;;;;11.00;98737.00;;;;5107415;28;20214;-80
2021/11/27 11:11:22;;;;;;;9.85;5.40;;;;;11.00;98740.00;;;;5109680;28;20194;-80
2021/11/27 11:13:54;;;;;;;11.38;5.63;;;;;11.10;98736.00;;;;5095429;28;20201;-79
2021/11/27 11:16:22;;;;;;;9.20;5.07;;;;;11.10;98742.00;;;;5088264;28;20312;-80
2021/11/27 11:18:52;;;;;;;9.27;5.03;;;;;11.10;98739.00;;;;5088541;28;20230;-80
2021/11/27 11:21:22;;;;;;;8.98;4.55;;;;;11.10;98736.00;;;;5088931;28;20198;-79
2021/11/27 11:23:50;;;;;;;8.05;4.70;;;;;11.10;98734.00;;;;5089161;28;20664;-80
2021/11/27 11:26:21;;;;;;;8.95;3.83;;;;;11.10;98740.00;;;;5088270;28;20667;-79
2021/11/27 11:28:53;;;;;;;11.13;3.80;;;;;11.10;98734.00;;;;5088998;28;20191;-79
2021/11/27 11:31:23;;;;;;;5.78;3.63;;;;;11.20;98747.00;;;;5106262;28;20720;-79
2021/11/27 11:33:52;;;;;;;7.53;3.35;;;;;11.20;98741.00;;;;5108664;28;20208;-79
2021/11/27 11:36:23;;;;;;;9.20;3.92;;;;;11.20;98746.00;;;;5109029;28;20221;-79
2021/11/27 11:38:51;;;;;;;9.45;4.05;;;;;11.30;98745.00;;;;5108881;28;20201;-80
2021/11/27 11:41:21;;;;;;;8.45;4.40;;;;;11.30;98746.00;;;;5108891;28;20193;-80
2021/11/27 11:43:50;;;;;;;9.30;3.55;;;;;11.30;98753.00;;;;5108748;28;20200;-79
2021/11/27 11:46:18;;;;;;;8.07;3.70;;;;;11.40;98751.00;;;;5092293;28;20202;-79
2021/11/27 11:48:50;;;;;;;9.20;3.47;;;;;11.40;98753.00;;;;5109330;28;20261;-79
2021/11/27 11:51:33;;;;;;;10.35;3.75;;;;;11.40;98748.00;;;;5101805;28;20559;-79
2021/11/27 11:54:02;;;;;;;6.18;3.38;;;;;11.50;98758.00;;;;5089014;28;20205;-79
2021/11/27 11:56:35;;;;;;;5.13;2.38;;;;;11.50;98760.00;;;;5088366;28;20426;-79
2021/11/27 11:59:17;;;;;;;7.20;2.47;;;;;11.50;98749.00;;;;5088784;28;20190;-79
2021/11/27 12:01:51;;;;;;;5.75;2.70;;;;;11.60;98747.00;;;;5100075;28;20197;-79
2021/11/27 12:04:22;;;;;;;3.33;1.42;;;;;11.60;98757.00;;;;5103487;28;20198;-79
2021/11/27 12:06:51;;;;;;;3.90;1.30;;;;;11.60;98752.00;;;;5104659;28;20705;-79
2021/11/27 12:09:18;;;;;;;2.22;0.90;;;;;11.60;98749.00;;;;5088643;28;20209;-79
2021/11/27 12:12:19;;;;;;;3.55;0.77;;;;;11.60;98749.00;;;;5088545;28;21119;-80
2021/11/27 12:15:00;;;;;;;4.30;0.93;;;;;11.60;98747.00;;;;5091737;28;20250;-79
2021/11/27 12:17:29;;;;;;;4.72;0.85;;;;;11.70;98755.00;;;;5108791;28;20221;-79
2021/11/27 12:20:00;;;;;;;5.82;1.00;;;;;11.80;98747.00;;;;5108935;28;20292;-79
2021/11/27 12:22:40;;;;;;;3.15;1.10;;;;;11.80;98752.00;;;;5107159;28;20221;-79
2021/11/27 12:25:17;;;;;;;2.75;1.10;;;;;11.80;98756.00;;;;5112353;28;20197;-79
2021/11/27 12:28:21;;;;;;;4.13;0.95;;;;;11.80;98761.00;;;;5113201;28;20197;-79